Share

Alcova, WY

7:14 PM MDT on April 23, 2014 (GMT -0600)
Natrona County International (KCPR) Elev 5289 ft | 42.90 °N, 106.47 °W | Change Station
Active Advisory: Special Statement

Current weather conditions updated 21 minutes ago

Mostly Cloudy
Mostly Cloudy
50 °F
Feels Like 50 °F
N
20
Wind Variable Wind from WNW
Gusts 32 mph
Sunrise 6:13 AM
Sunset 7:58 PM
Moon Waning Crescent

Tomorrow is forecast to be Warmer than today.

Pressure 29.73 in
Visibility 10.0 miles
Clouds Mostly Cloudy 11000 ft
Dew Point 10 °F
Humidity 20%
Rainfall 0.00 in
Snow Depth Not available.
UV 0 out of 16
Pollen 11.30 out of 12
Air Quality Not available.
Flu Activity Sporadic
METAR KCPR 240053Z 29017G28KT 10SM BKN110 10/M12 A2979 RMK AO2 PK WND 31037/0003 SLP065 T01001122

More Conditions Fewer Conditions

Pressure 29.73 in
Visibility 10.0 miles
Clouds Mostly Cloudy 11000 ft
Dew Point 10 °F
Humidity 20%
Rainfall 0.00 in
Snow Depth Not available.
UV 0 out of 16
Pollen 11.30 out of 12
Air Quality Not available.
Flu Activity Sporadic
METAR KCPR 240053Z 29017G28KT 10SM BKN110 10/M12 A2979 RMK AO2 PK WND 31037/0003 SLP065 T01001122

More Conditions Fewer Conditions

10-Day Weather Forecast

Almanac

Astronomy

Apr. 23, 2014 Rise Set
Actual Time 6:13 AM MDT 7:58 PM MDT
Civil Twilight 5:43 AM MDT 8:28 PM MDT
Nautical Twilight 5:07 AM MDT 9:05 PM MDT
Astronomical Twilight 4:28 AM MDT 9:44 PM MDT
Moon 2:55 AM MDT (4/23) 2:03 PM MDT (4/23)
Length of Visible Light 14h 44m
Length of Day
13h 44m
Tomorrow will be 2m 38s longer.
Waning Crescent, 31% of the Moon is Illuminated
Today
Waning Crescent
Apr 29
New
May 6
First Quarter
May 14
Full
May 21
Last Quarter

Today's Extremes

State Highs State Lows

Community

  • Nestled In
    Nestled In
  • Stunning Sunrise
    Stunning Sunrise
  • spring flowers
    spring flowers
  • Earth Day Spectrum Ove' Blue
    Earth Day Spectrum Ove' Blue
  • BARN B&W
    BARN B&W

WunderPhotos

Upload Photos

1,704,485 photos uploaded!

Nearby

Snow Depth

Station Depth Elevation
Casper Mountain 45 in 7850 ft
Reno Hill 49 in 8500 ft
Windy Peak 18 in 7900 ft
Grave Springs 40 in 8550 ft
Sage Creek Basin 17 in 7850 ft

Coastal Water Temperatures

Place Temperature
No Stations Reporting

Earthquake Activity

City Distance Mag. Time & Date
No recent earthquake activity has been reported nearby.
Minimum magnitude displayed is 2.5.

Nearby Weather Stations

There are no personal weather stations in this area.

What do you think?

We're not finished. Please let us know what you like, what you don't like, and what you are still missing.